Bradford, Illinois
Current Conditions -  °F | °C
As of 2:55 AM on Sunday 21 Dec 2014 (Local Time) from KC75 Reporting Station
Overcast Overcast  
Wind Chill: 29°   Ceiling: 3700
Heat Index: 34°   Visibility: 10mi
Dew Point: 29°   Wind: 6mph
Humidity: 82%   Direction: 170°S
Pressure: 30.2"   Gusts: NA
Location:  41.18°N, 89.66°W
Report Text: KC75 210855Z AUTO 17005KT 10SM SCT028 BKN037 OVC043 01/M02 A3020 RMK AO2 T00101017
Loading
Personal Weather Stations






























Interactive Weather Map New forecast layout! Learn more

10-Day Weather Forecast

Advertisements
Track Severe Weather on mobile